createdAt,value
2023-02-27T00:02:14.277Z,4.40
2023-02-27T00:07:26.144Z,4.80
2023-02-27T00:12:37.813Z,5.00
2023-02-27T00:17:45.724Z,4.90
2023-02-27T00:27:59.647Z,4.00
2023-02-27T00:33:09.166Z,4.00
2023-02-27T00:38:16.370Z,4.00
2023-02-27T00:43:23.608Z,4.40
2023-02-27T00:48:30.755Z,3.50
2023-02-27T00:53:37.997Z,3.90
2023-02-27T00:58:45.264Z,4.00
2023-02-27T01:03:52.586Z,4.30
2023-02-27T01:09:00.606Z,3.10
2023-02-27T01:14:07.868Z,4.10
2023-02-27T01:19:15.476Z,3.20
2023-02-27T01:24:24.177Z,3.40
2023-02-27T01:29:32.685Z,3.80
2023-02-27T01:34:42.038Z,3.50
2023-02-27T01:39:49.176Z,3.80
2023-02-27T01:45:32.389Z,3.60
2023-02-27T01:50:44.218Z,3.60
2023-02-27T01:55:52.839Z,3.40
2023-02-27T02:01:03.204Z,3.50
2023-02-27T02:06:10.956Z,3.70
2023-02-27T02:11:20.752Z,4.50
2023-02-27T02:16:45.135Z,3.80
2023-02-27T02:22:26.307Z,3.80
2023-02-27T02:27:45.848Z,4.20
2023-02-27T02:33:21.620Z,4.10
2023-02-27T02:38:50.957Z,4.00
2023-02-27T02:44:05.385Z,3.50
2023-02-27T02:49:19.320Z,4.50
2023-02-27T02:54:32.382Z,4.10
2023-02-27T02:59:45.517Z,4.60
2023-02-27T03:04:59.226Z,5.00
2023-02-27T03:10:14.046Z,4.90
2023-02-27T03:15:27.011Z,4.70
2023-02-27T03:20:38.706Z,4.60
2023-02-27T03:25:47.692Z,3.80
2023-02-27T03:31:02.823Z,8.40
2023-02-27T03:36:16.392Z,12.50
2023-02-27T03:41:30.564Z,13.40
2023-02-27T03:46:54.326Z,15.80
2023-02-27T03:52:02.466Z,12.60
2023-02-27T03:57:15.529Z,7.60
2023-02-27T04:02:24.557Z,5.40
2023-02-27T04:07:41.915Z,5.00
2023-02-27T04:13:28.205Z,6.10
2023-02-27T04:18:56.905Z,5.00
2023-02-27T04:24:14.796Z,3.50
2023-02-27T04:29:35.029Z,3.50
2023-02-27T04:34:44.401Z,4.60
2023-02-27T04:39:57.487Z,4.00
2023-02-27T04:45:10.284Z,4.30
2023-02-27T04:50:21.815Z,4.80
2023-02-27T04:55:33.216Z,4.00
2023-02-27T05:00:44.408Z,4.50
2023-02-27T05:05:55.855Z,5.10
2023-02-27T05:11:07.529Z,3.70
2023-02-27T05:16:23.447Z,5.20
2023-02-27T05:21:37.154Z,5.00
2023-02-27T05:26:56.226Z,5.00
2023-02-27T05:32:12.857Z,5.00
2023-02-27T05:37:26.197Z,5.10
2023-02-27T05:42:39.568Z,4.40
2023-02-27T05:47:52.691Z,5.70
2023-02-27T05:53:07.560Z,4.40
2023-02-27T05:58:20.752Z,4.20
2023-02-27T06:03:28.638Z,3.60
2023-02-27T06:08:36.514Z,3.40
2023-02-27T06:18:49.593Z,5.50
2023-02-27T06:23:56.694Z,5.30
2023-02-27T06:29:03.862Z,4.80
2023-02-27T06:34:12.249Z,5.30
2023-02-27T06:39:19.422Z,8.10
2023-02-27T06:44:26.552Z,7.50
2023-02-27T06:49:33.941Z,7.40
2023-02-27T06:54:41.145Z,6.80
2023-02-27T06:59:48.301Z,7.70
2023-02-27T07:04:55.713Z,7.10
2023-02-27T07:10:03.031Z,6.50
2023-02-27T07:15:11.913Z,6.90
2023-02-27T07:20:22.002Z,5.90
2023-02-27T07:25:29.170Z,5.10
2023-02-27T07:30:36.276Z,5.90
2023-02-27T07:35:43.468Z,6.30
2023-02-27T07:40:50.703Z,5.50
2023-02-27T07:45:57.951Z,5.10
2023-02-27T07:51:05.239Z,5.60
2023-02-27T07:56:12.649Z,4.60
2023-02-27T08:01:20.287Z,6.80
2023-02-27T08:06:28.320Z,6.00
2023-02-27T08:11:41.303Z,8.10
2023-02-27T08:16:48.467Z,7.40
2023-02-27T08:21:55.625Z,5.50
2023-02-27T08:27:02.791Z,5.20
2023-02-27T08:32:10.390Z,5.80
2023-02-27T08:37:17.529Z,9.30
2023-02-27T08:42:26.819Z,5.50
2023-02-27T08:47:34.180Z,5.20
2023-02-27T08:52:41.863Z,8.70
2023-02-27T08:57:51.494Z,4.20
2023-02-27T09:02:58.811Z,5.80
2023-02-27T09:08:07.294Z,8.70
2023-02-27T09:13:14.480Z,4.40
2023-02-27T09:18:21.854Z,8.40
2023-02-27T09:23:29.473Z,7.10
2023-02-27T09:28:37.110Z,5.40
2023-02-27T09:33:44.808Z,3.60
2023-02-27T09:38:57.012Z,3.80
2023-02-27T09:44:04.678Z,3.90
2023-02-27T09:49:20.164Z,4.10
2023-02-27T09:54:32.435Z,4.10
2023-02-27T09:59:45.490Z,2.20
2023-02-27T10:05:02.332Z,2.90
2023-02-27T10:10:22.988Z,4.30
2023-02-27T10:15:33.653Z,3.00
2023-02-27T10:20:48.841Z,3.10
2023-02-27T10:25:56.513Z,2.30
2023-02-27T10:31:13.250Z,1.50
2023-02-27T10:36:32.959Z,2.30
2023-02-27T10:41:43.657Z,1.40
2023-02-27T10:46:52.107Z,1.60
2023-02-27T10:52:12.641Z,0.60
2023-02-27T10:57:33.322Z,1.40
2023-02-27T11:02:46.998Z,1.40
2023-02-27T11:07:54.494Z,2.80
2023-02-27T11:13:05.167Z,2.40
2023-02-27T11:18:29.871Z,1.60
2023-02-27T11:23:37.410Z,1.80
2023-02-27T11:28:45.028Z,3.40
2023-02-27T11:33:56.141Z,1.90
2023-02-27T11:39:03.315Z,1.80
2023-02-27T11:44:38.574Z,2.60
2023-02-27T11:50:18.018Z,3.10
2023-02-27T11:55:29.436Z,2.70
2023-02-27T12:00:45.770Z,3.00
2023-02-27T12:05:56.431Z,5.50
2023-02-27T12:11:14.289Z,2.40
2023-02-27T12:16:32.253Z,7.80
2023-02-27T12:21:45.195Z,2.90
2023-02-27T12:27:01.680Z,3.10
2023-02-27T12:32:18.983Z,4.00
2023-02-27T12:37:28.014Z,2.90
2023-02-27T12:43:17.527Z,2.50
2023-02-27T12:48:35.232Z,2.50
2023-02-27T12:54:03.313Z,5.50
2023-02-27T12:59:21.416Z,6.30
2023-02-27T13:04:32.974Z,1.90
2023-02-27T13:09:47.429Z,1.30
2023-02-27T13:15:04.253Z,1.80
2023-02-27T13:20:28.016Z,2.60
2023-02-27T13:25:39.804Z,3.20
2023-02-27T13:30:54.123Z,2.10
2023-02-27T13:36:10.734Z,1.90
2023-02-27T13:41:51.293Z,3.00
2023-02-27T13:47:35.679Z,1.30
2023-02-27T13:52:42.894Z,4.10
2023-02-27T13:57:52.778Z,3.40
2023-02-27T14:03:04.748Z,2.10
2023-02-27T14:08:20.127Z,1.80
2023-02-27T14:14:02.266Z,1.40
2023-02-27T14:19:45.447Z,2.10
2023-02-27T14:25:03.647Z,1.80
2023-02-27T14:35:32.058Z,1.30
2023-02-27T14:40:52.921Z,1.70
2023-02-27T14:46:12.368Z,2.10
2023-02-27T14:51:19.715Z,1.40
2023-02-27T14:56:27.299Z,2.30
2023-02-27T15:01:38.866Z,2.10
2023-02-27T15:06:48.751Z,1.90
2023-02-27T15:12:03.947Z,2.50
2023-02-27T15:17:33.022Z,2.50
2023-02-27T15:22:45.715Z,3.00
2023-02-27T15:27:53.313Z,2.00
2023-02-27T15:33:03.007Z,3.20
2023-02-27T15:38:24.096Z,3.40
2023-02-27T15:43:32.355Z,2.40
2023-02-27T15:48:39.738Z,2.20
2023-02-27T15:53:51.853Z,3.20
2023-02-27T15:59:01.144Z,3.70
2023-02-27T16:04:20.641Z,3.10
2023-02-27T16:09:32.312Z,8.70
2023-02-27T16:14:46.592Z,5.80
2023-02-27T16:19:54.328Z,4.30
2023-02-27T16:25:12.492Z,5.00
2023-02-27T16:30:20.238Z,5.30
2023-02-27T16:35:28.451Z,5.90
2023-02-27T16:40:35.771Z,5.20
2023-02-27T16:45:56.474Z,9.30
2023-02-27T16:51:03.961Z,7.10
2023-02-27T16:56:12.189Z,9.00
2023-02-27T17:01:19.728Z,10.60
2023-02-27T17:06:27.271Z,7.00
2023-02-27T17:11:34.641Z,6.50
2023-02-27T17:16:41.869Z,7.60
2023-02-27T17:21:49.511Z,7.40
2023-02-27T17:26:56.789Z,7.50
2023-02-27T17:32:04.076Z,10.00
2023-02-27T17:37:11.249Z,11.10
2023-02-27T17:42:19.605Z,10.30
2023-02-27T17:47:26.974Z,9.50
2023-02-27T17:52:36.008Z,11.90
2023-02-27T17:57:43.701Z,19.30
2023-02-27T18:02:54.232Z,14.40
2023-02-27T18:08:01.876Z,11.30
2023-02-27T18:13:10.417Z,10.80
2023-02-27T18:18:17.530Z,11.80
2023-02-27T18:23:45.132Z,9.10
2023-02-27T18:29:05.475Z,8.30
2023-02-27T18:34:14.245Z,11.90
2023-02-27T18:39:23.013Z,13.10
2023-02-27T18:44:30.441Z,12.10
2023-02-27T18:49:37.696Z,9.80
2023-02-27T18:54:44.831Z,12.60
2023-02-27T18:59:52.107Z,9.40
2023-02-27T19:04:59.492Z,16.90
2023-02-27T19:10:09.698Z,17.10
2023-02-27T19:15:16.894Z,17.40
2023-02-27T19:20:24.031Z,14.60
2023-02-27T19:25:32.153Z,8.20
2023-02-27T19:30:40.938Z,9.70
2023-02-27T19:35:48.690Z,10.70
2023-02-27T19:40:55.859Z,12.00
2023-02-27T19:46:05.158Z,21.90
2023-02-27T19:51:15.085Z,10.80
2023-02-27T19:56:24.235Z,9.20
2023-02-27T20:01:33.292Z,8.70
2023-02-27T20:06:44.029Z,7.60
2023-02-27T20:11:56.909Z,8.50
2023-02-27T20:17:04.146Z,13.00
2023-02-27T20:22:13.671Z,9.70
2023-02-27T20:27:20.851Z,10.50
2023-02-27T20:32:28.124Z,8.20
2023-02-27T20:37:35.607Z,9.40
2023-02-27T20:42:42.857Z,11.30
2023-02-27T20:47:52.181Z,13.40
2023-02-27T20:52:59.279Z,11.40
2023-02-27T20:58:06.462Z,11.80
2023-02-27T21:03:13.946Z,18.10
2023-02-27T21:08:21.755Z,13.90
2023-02-27T21:18:35.096Z,16.20
2023-02-27T21:23:44.025Z,13.40
2023-02-27T21:34:01.168Z,12.30
2023-02-27T21:39:11.237Z,13.40
2023-02-27T21:44:20.531Z,11.80
2023-02-27T21:49:31.483Z,13.80
2023-02-27T21:54:40.430Z,11.80
2023-02-27T21:59:47.809Z,14.00
2023-02-27T22:04:54.886Z,13.60
2023-02-27T22:10:02.828Z,14.40
2023-02-27T22:15:11.894Z,13.30
2023-02-27T22:20:19.320Z,13.50
2023-02-27T22:25:26.571Z,15.20
2023-02-27T22:30:34.150Z,16.30
2023-02-27T22:35:41.868Z,16.50
2023-02-27T22:45:54.860Z,17.40
2023-02-27T22:51:04.256Z,16.60
2023-02-27T22:56:13.473Z,16.60
2023-02-27T23:01:23.451Z,17.40
2023-02-27T23:06:32.596Z,17.00
2023-02-27T23:11:40.170Z,17.80
2023-02-27T23:21:54.083Z,19.80
2023-02-27T23:27:03.595Z,26.00
2023-02-27T23:32:12.398Z,21.90
2023-02-27T23:37:19.635Z,37.10
2023-02-27T23:42:28.806Z,31.60
2023-02-27T23:47:45.252Z,29.00
2023-02-27T23:52:53.617Z,28.60
2023-02-27T23:58:04.465Z,30.70
